Time;durP1;ratioP1;P1;durP2;ratioP2;P2;SDS_P1;SDS_P2;PMS_P1;PMS_P2;Temp;Humidity;BMP_temperature;BMP_pressure;BME280_temperature;BME280_humidity;BME280_pressure;Samples;Min_cycle;Max_cycle;Signal;HPM_P1;HPM_P2
2023/02/06 00:01:33;;;;;;;21.97;6.37;;;1.70;99.90;;;;;;5093799;28;20435;-71
2023/02/06 00:04:02;;;;;;;24.43;7.67;;;1.70;99.90;;;;;;5075169;28;20556;-71
2023/02/06 00:06:31;;;;;;;32.70;8.00;;;1.70;99.90;;;;;;5093183;28;20435;-71
2023/02/06 00:09:00;;;;;;;30.93;8.90;;;1.70;99.90;;;;;;5093099;28;20454;-71
2023/02/06 00:11:28;;;;;;;25.50;8.30;;;1.70;99.90;;;;;;5093640;28;20472;-71
2023/02/06 00:13:56;;;;;;;32.60;9.60;;;1.70;99.90;;;;;;5093105;28;20437;-71
2023/02/06 00:16:26;;;;;;;37.47;9.33;;;1.70;99.90;;;;;;5095573;28;20438;-70
2023/02/06 00:18:56;;;;;;;32.70;7.23;;;1.70;99.90;;;;;;5078928;28;20553;-70
2023/02/06 00:21:25;;;;;;;42.43;9.13;;;1.70;99.90;;;;;;5078979;28;20443;-70
2023/02/06 00:23:56;;;;;;;28.87;7.50;;;1.70;99.90;;;;;;5097162;28;20522;-70
2023/02/06 00:26:24;;;;;;;29.57;8.87;;;1.70;99.90;;;;;;5097700;28;20474;-71
2023/02/06 00:28:53;;;;;;;27.73;8.43;;;1.70;99.90;;;;;;5096966;28;20994;-70
2023/02/06 00:31:21;;;;;;;33.57;8.63;;;1.70;99.90;;;;;;5078753;28;20450;-71
2023/02/06 00:33:49;;;;;;;31.77;8.40;;;1.70;99.90;;;;;;5096872;28;20454;-70
2023/02/06 00:36:17;;;;;;;33.37;8.80;;;1.70;99.90;;;;;;5078686;28;20443;-71
2023/02/06 00:38:45;;;;;;;24.80;8.63;;;1.60;99.90;;;;;;5078442;28;20854;-70
2023/02/06 00:41:15;;;;;;;34.97;8.30;;;1.60;99.90;;;;;;5078576;28;20452;-70
2023/02/06 00:43:43;;;;;;;32.10;8.90;;;1.60;99.90;;;;;;5078630;28;20450;-70
2023/02/06 00:46:11;;;;;;;32.60;9.70;;;1.60;99.90;;;;;;5097007;28;20439;-70
2023/02/06 00:48:40;;;;;;;29.97;7.40;;;1.60;99.90;;;;;;5078385;28;20471;-70
2023/02/06 00:51:09;;;;;;;32.70;10.27;;;1.60;99.90;;;;;;5096731;28;20491;-71
2023/02/06 00:53:37;;;;;;;32.43;10.70;;;1.60;99.90;;;;;;5078558;28;20529;-71
2023/02/06 00:56:05;;;;;;;37.07;12.10;;;1.60;99.90;;;;;;5097263;28;20444;-71
2023/02/06 00:58:35;;;;;;;31.87;9.73;;;1.60;99.90;;;;;;5078012;28;20479;-71
2023/02/06 01:01:03;;;;;;;31.87;10.00;;;1.50;99.90;;;;;;5096440;28;20454;-71
2023/02/06 01:03:31;;;;;;;33.13;9.10;;;1.50;99.90;;;;;;5078316;28;20449;-71
2023/02/06 01:05:59;;;;;;;36.03;9.60;;;1.50;99.90;;;;;;5078225;28;20459;-71
2023/02/06 01:08:28;;;;;;;32.27;10.50;;;1.50;99.90;;;;;;5078121;28;20479;-70
2023/02/06 01:10:59;;;;;;;31.93;9.23;;;1.50;99.90;;;;;;5078076;28;21008;-71
2023/02/06 01:13:28;;;;;;;32.17;8.40;;;1.50;99.90;;;;;;5078215;28;20456;-70
2023/02/06 01:15:57;;;;;;;35.20;10.10;;;1.50;99.90;;;;;;5096246;28;20439;-71
2023/02/06 01:18:26;;;;;;;34.20;10.20;;;1.50;99.90;;;;;;5096549;28;20530;-70
2023/02/06 01:20:54;;;;;;;33.07;10.00;;;1.50;99.90;;;;;;5096941;28;20470;-70
2023/02/06 01:23:24;;;;;;;41.00;9.93;;;1.40;99.90;;;;;;5078384;28;20979;-71
2023/02/06 01:25:52;;;;;;;33.10;11.13;;;1.50;99.90;;;;;;5087590;28;20513;-70
2023/02/06 01:28:21;;;;;;;40.40;9.50;;;1.50;99.90;;;;;;5088653;28;20476;-70
2023/02/06 01:30:49;;;;;;;33.53;10.60;;;1.50;99.90;;;;;;5083547;28;20441;-71
2023/02/06 01:33:18;;;;;;;34.90;9.00;;;1.50;99.90;;;;;;5083090;28;20452;-70
2023/02/06 01:35:54;;;;;;;30.93;9.53;;;1.40;99.90;;;;;;5083467;28;20438;-71
2023/02/06 01:38:22;;;;;;;31.30;9.80;;;1.40;99.90;;;;;;5101009;28;20467;-70
2023/02/06 01:40:55;;;;;;;35.67;8.17;;;1.40;99.90;;;;;;5083841;28;20447;-70
2023/02/06 01:43:27;;;;;;;30.30;9.87;;;1.40;99.90;;;;;;5083178;28;20984;-71
2023/02/06 01:45:56;;;;;;;32.77;8.73;;;1.40;99.90;;;;;;5080849;28;20441;-70
2023/02/06 01:48:31;;;;;;;36.60;10.73;;;1.40;99.90;;;;;;5078957;28;20466;-70
2023/02/06 01:51:01;;;;;;;33.83;8.50;;;1.40;99.90;;;;;;5096946;28;20455;-70
2023/02/06 01:53:31;;;;;;;41.00;10.13;;;1.40;99.90;;;;;;5096245;28;20460;-70
2023/02/06 01:56:04;;;;;;;28.07;9.53;;;1.40;99.90;;;;;;5095873;28;20445;-70
2023/02/06 01:58:35;;;;;;;30.97;8.60;;;1.40;99.90;;;;;;5077021;28;20853;-70
2023/02/06 02:01:05;;;;;;;31.93;7.07;;;1.40;99.90;;;;;;5077262;28;20447;-70
2023/02/06 02:03:38;;;;;;;36.90;10.60;;;1.40;99.90;;;;;;5095704;28;20491;-70
2023/02/06 02:06:08;;;;;;;34.23;7.93;;;1.40;99.90;;;;;;5095650;28;20430;-70
2023/02/06 02:08:39;;;;;;;29.20;8.87;;;1.40;99.90;;;;;;5095120;28;20456;-71
2023/02/06 02:11:09;;;;;;;28.67;8.53;;;1.40;99.90;;;;;;5095205;28;20813;-70
2023/02/06 02:13:38;;;;;;;32.60;7.27;;;1.40;99.90;;;;;;5076912;28;20538;-70
2023/02/06 02:16:14;;;;;;;31.87;8.23;;;1.40;99.90;;;;;;5076899;28;20536;-70
2023/02/06 02:18:59;;;;;;;28.17;9.00;;;1.40;99.90;;;;;;5076710;28;20875;-70
2023/02/06 02:21:57;;;;;;;27.97;8.60;;;1.40;99.90;;;;;;5076823;28;20491;-70
2023/02/06 02:24:40;;;;;;;29.57;7.67;;;1.40;99.90;;;;;;5045294;28;20457;-70
2023/02/06 02:27:36;;;;;;;21.93;6.80;;;1.40;99.90;;;;;;5095066;28;20425;-70
2023/02/06 02:30:44;;;;;;;28.43;8.67;;;1.30;99.90;;;;;;5076511;28;21059;-70
2023/02/06 02:33:36;;;;;;;22.83;6.73;;;1.30;99.90;;;;;;5076611;28;20436;-70
2023/02/06 02:36:14;;;;;;;33.67;7.77;;;1.30;99.90;;;;;;5094853;28;20432;-70
2023/02/06 02:38:52;;;;;;;33.13;8.80;;;1.30;99.90;;;;;;5075719;28;20526;-70
2023/02/06 02:41:27;;;;;;;34.93;8.83;;;1.20;99.90;;;;;;5076084;28;20438;-70
2023/02/06 02:44:01;;;;;;;32.23;8.67;;;1.30;99.90;;;;;;5094796;28;20445;-70
2023/02/06 02:46:34;;;;;;;26.90;8.23;;;1.30;99.90;;;;;;5076339;28;20550;-70
2023/02/06 02:49:08;;;;;;;30.27;8.00;;;1.30;99.90;;;;;;5076168;28;20458;-70
2023/02/06 02:51:39;;;;;;;32.70;9.80;;;1.30;99.90;;;;;;5076418;28;20445;-70
2023/02/06 02:54:07;;;;;;;27.67;9.13;;;1.30;99.90;;;;;;5076327;28;20449;-70
2023/02/06 02:56:38;;;;;;;36.47;9.03;;;1.30;99.90;;;;;;5076507;28;21022;-70
2023/02/06 02:59:11;;;;;;;26.83;7.40;;;1.30;99.90;;;;;;5075851;28;20484;-70
2023/02/06 03:01:45;;;;;;;24.10;6.70;;;1.30;99.90;;;;;;5076144;28;20479;-70
2023/02/06 03:04:19;;;;;;;32.80;7.73;;;1.30;99.90;;;;;;5076050;28;20438;-70
2023/02/06 03:07:16;;;;;;;37.53;8.27;;;1.30;99.90;;;;;;5075906;28;20520;-70
2023/02/06 03:09:53;;;;;;;30.90;8.43;;;1.30;99.90;;;;;;5075787;28;20471;-70
2023/02/06 03:12:28;;;;;;;27.60;9.03;;;1.20;99.90;;;;;;5094285;28;20419;-70
2023/02/06 03:15:01;;;;;;;29.47;8.37;;;1.20;99.90;;;;;;5075871;28;20441;-70
2023/02/06 03:17:35;;;;;;;31.57;8.40;;;1.20;99.90;;;;;;5075741;28;20439;-70
2023/02/06 03:20:06;;;;;;;30.77;9.23;;;1.20;99.90;;;;;;5093625;28;20477;-70
2023/02/06 03:22:37;;;;;;;29.33;8.57;;;1.20;99.90;;;;;;5075651;28;20432;-70
2023/02/06 03:25:11;;;;;;;27.50;7.07;;;1.20;99.90;;;;;;5094057;28;20427;-70
2023/02/06 03:27:43;;;;;;;23.93;8.83;;;1.20;99.90;;;;;;5094275;28;20424;-70
2023/02/06 03:30:13;;;;;;;25.03;7.50;;;1.20;99.90;;;;;;5093644;28;20488;-70
2023/02/06 03:32:45;;;;;;;33.80;8.03;;;1.10;99.90;;;;;;5094237;28;20421;-70
2023/02/06 03:35:17;;;;;;;21.00;7.10;;;1.10;99.90;;;;;;5075429;28;20476;-70
2023/02/06 03:37:47;;;;;;;26.37;7.33;;;1.00;99.90;;;;;;5075503;28;20440;-70
2023/02/06 03:40:17;;;;;;;24.20;6.80;;;1.00;99.90;;;;;;5094022;28;20852;-70
2023/02/06 03:42:50;;;;;;;31.23;6.77;;;1.00;99.90;;;;;;5093763;28;20433;-70
2023/02/06 03:45:23;;;;;;;20.90;5.73;;;1.00;99.90;;;;;;5075316;28;20978;-70
2023/02/06 03:47:52;;;;;;;24.50;6.63;;;0.90;99.90;;;;;;5093612;28;20426;-70
2023/02/06 03:50:23;;;;;;;17.53;6.00;;;0.90;99.90;;;;;;5093114;28;20434;-70
2023/02/06 03:52:55;;;;;;;29.83;7.67;;;0.90;99.90;;;;;;5093694;28;20514;-70
2023/02/06 03:55:25;;;;;;;20.90;6.87;;;0.80;99.90;;;;;;5093719;28;20437;-70
2023/02/06 03:57:56;;;;;;;24.57;6.90;;;0.80;99.90;;;;;;5093289;28;20449;-71
2023/02/06 04:00:25;;;;;;;23.37;8.67;;;0.80;99.90;;;;;;5093613;28;20483;-70
2023/02/06 04:02:55;;;;;;;25.17;7.00;;;0.80;99.90;;;;;;5075493;28;20987;-70
2023/02/06 04:05:24;;;;;;;24.83;6.83;;;0.80;99.90;;;;;;5093259;28;20475;-70
2023/02/06 04:07:55;;;;;;;20.17;7.70;;;0.80;99.90;;;;;;5093401;28;20767;-70
2023/02/06 04:10:24;;;;;;;29.43;9.07;;;0.80;99.90;;;;;;5075130;28;20444;-70
2023/02/06 04:12:53;;;;;;;24.77;7.80;;;0.80;99.90;;;;;;5075030;28;20951;-70
2023/02/06 04:15:21;;;;;;;21.40;7.10;;;0.80;99.90;;;;;;5075032;28;20454;-70
2023/02/06 04:17:51;;;;;;;22.37;8.10;;;0.80;99.90;;;;;;5074880;28;20449;-70
2023/02/06 04:20:27;;;;;;;28.53;7.97;;;0.80;99.90;;;;;;5093802;28;20467;-70
2023/02/06 04:22:57;;;;;;;32.77;9.40;;;0.90;99.90;;;;;;5093317;28;20442;-70
2023/02/06 04:25:25;;;;;;;25.53;8.73;;;0.90;99.90;;;;;;5093569;28;20480;-70
2023/02/06 04:27:53;;;;;;;23.53;8.43;;;0.90;99.90;;;;;;5074860;28;20996;-70
2023/02/06 04:30:22;;;;;;;26.03;9.63;;;1.00;99.90;;;;;;5092991;28;20436;-70
2023/02/06 04:32:50;;;;;;;26.03;9.03;;;1.00;99.90;;;;;;5093131;28;20442;-70
2023/02/06 04:35:19;;;;;;;32.47;9.83;;;1.00;99.90;;;;;;5093130;28;20436;-70
2023/02/06 04:37:47;;;;;;;25.93;9.90;;;1.10;99.90;;;;;;5093051;28;20432;-70
2023/02/06 04:40:16;;;;;;;36.93;11.47;;;1.10;99.90;;;;;;5092785;28;20543;-70
2023/02/06 04:42:44;;;;;;;34.53;10.47;;;1.10;99.90;;;;;;5093088;28;20801;-70
2023/02/06 04:45:13;;;;;;;28.50;9.60;;;1.10;99.90;;;;;;5074665;28;20502;-70
2023/02/06 04:47:41;;;;;;;39.90;12.70;;;1.20;99.90;;;;;;5092680;28;20433;-70
2023/02/06 04:50:10;;;;;;;32.97;12.17;;;1.20;99.90;;;;;;5074559;28;20617;-70
2023/02/06 04:52:38;;;;;;;35.77;13.03;;;1.20;99.90;;;;;;5092950;28;20444;-70
2023/02/06 04:55:07;;;;;;;45.93;14.17;;;1.20;99.90;;;;;;5092701;28;20470;-71
2023/02/06 04:57:36;;;;;;;28.47;12.63;;;1.30;99.90;;;;;;5092815;28;20446;-71
2023/02/06 05:00:05;;;;;;;49.47;14.73;;;1.30;99.90;;;;;;5092856;28;20474;-71
2023/02/06 05:02:36;;;;;;;39.47;13.70;;;1.40;99.90;;;;;;5093299;28;20443;-71
2023/02/06 05:05:05;;;;;;;40.93;15.43;;;1.40;99.90;;;;;;5096765;28;20432;-70
2023/02/06 05:07:34;;;;;;;46.03;13.80;;;1.40;99.90;;;;;;5096660;28;20426;-71
2023/02/06 05:10:02;;;;;;;27.37;13.10;;;1.40;99.90;;;;;;5096238;28;20448;-71
2023/02/06 05:12:30;;;;;;;48.33;15.43;;;1.50;99.90;;;;;;5096470;28;20451;-71
2023/02/06 05:15:00;;;;;;;46.57;16.87;;;1.50;99.90;;;;;;5096189;28;20440;-70
2023/02/06 05:17:28;;;;;;;24.93;12.83;;;1.50;99.90;;;;;;5096727;28;20792;-70
2023/02/06 05:19:56;;;;;;;41.50;15.67;;;1.50;99.90;;;;;;5095915;28;20803;-71
2023/02/06 05:22:25;;;;;;;29.70;14.60;;;1.50;99.90;;;;;;5095997;28;20854;-71
2023/02/06 05:24:53;;;;;;;35.00;14.87;;;1.60;99.90;;;;;;5096310;28;20437;-71
2023/02/06 05:27:22;;;;;;;22.77;13.40;;;1.60;99.90;;;;;;5096154;28;20775;-70
2023/02/06 05:29:50;;;;;;;47.13;16.60;;;1.60;99.90;;;;;;5095841;28;20469;-70
2023/02/06 05:32:19;;;;;;;43.40;15.47;;;1.60;99.90;;;;;;5096119;28;20802;-70
2023/02/06 05:34:47;;;;;;;41.57;15.73;;;1.60;99.90;;;;;;5096266;28;20448;-70
2023/02/06 05:37:15;;;;;;;30.40;15.50;;;1.60;99.90;;;;;;5077556;28;20522;-70
2023/02/06 05:39:43;;;;;;;39.03;15.50;;;1.60;99.90;;;;;;5077506;28;20464;-70
2023/02/06 05:42:11;;;;;;;20.73;14.30;;;1.60;99.90;;;;;;5095636;28;21004;-71
2023/02/06 05:44:39;;;;;;;32.40;14.70;;;1.70;99.90;;;;;;5096165;28;20444;-71
2023/02/06 05:47:07;;;;;;;26.83;14.30;;;1.60;99.90;;;;;;5096171;28;20759;-71
2023/02/06 05:49:37;;;;;;;35.20;14.50;;;1.70;99.90;;;;;;5077243;28;20466;-71
2023/02/06 05:52:06;;;;;;;31.17;15.33;;;1.70;99.90;;;;;;5095632;28;20444;-71
2023/02/06 05:54:34;;;;;;;27.20;14.70;;;1.70;99.90;;;;;;5077487;28;20978;-71
2023/02/06 05:57:02;;;;;;;23.50;12.47;;;1.70;99.90;;;;;;5095882;28;20450;-70
2023/02/06 05:59:30;;;;;;;30.63;15.10;;;1.70;99.90;;;;;;5095179;28;20467;-70
2023/02/06 06:01:59;;;;;;;31.17;15.90;;;1.70;99.90;;;;;;5095196;28;21084;-71
2023/02/06 06:04:27;;;;;;;27.20;15.73;;;1.70;99.90;;;;;;5095395;28;20438;-71
2023/02/06 06:06:57;;;;;;;29.13;14.63;;;1.70;99.90;;;;;;5095823;28;20449;-71
2023/02/06 06:09:25;;;;;;;23.87;13.13;;;1.70;99.90;;;;;;5095457;28;20987;-70
2023/02/06 06:11:53;;;;;;;28.03;13.33;;;1.80;99.90;;;;;;5095328;28;20518;-71
2023/02/06 06:14:21;;;;;;;23.57;14.37;;;1.70;99.90;;;;;;5095366;28;20782;-70
2023/02/06 06:16:51;;;;;;;24.37;13.70;;;1.70;99.90;;;;;;5095045;28;20443;-71
2023/02/06 06:19:19;;;;;;;28.30;15.03;;;1.80;99.90;;;;;;5094808;28;20967;-71
2023/02/06 06:21:47;;;;;;;29.60;14.83;;;1.80;99.90;;;;;;5076642;28;20471;-71
2023/02/06 06:24:17;;;;;;;25.60;14.83;;;1.80;99.90;;;;;;5094829;28;20432;-71
2023/02/06 06:26:45;;;;;;;33.23;16.80;;;1.80;99.90;;;;;;5076683;28;20449;-71
2023/02/06 06:29:13;;;;;;;33.33;15.63;;;1.80;99.90;;;;;;5094998;28;20453;-70
2023/02/06 06:31:41;;;;;;;29.27;14.00;;;1.80;99.90;;;;;;5094933;28;20426;-71
2023/02/06 06:34:09;;;;;;;22.00;12.77;;;1.80;99.90;;;;;;5094959;28;20445;-71
2023/02/06 06:36:38;;;;;;;25.17;14.90;;;1.80;99.90;;;;;;5076646;28;20445;-71
2023/02/06 06:39:06;;;;;;;31.40;15.30;;;1.90;99.90;;;;;;5094500;28;20974;-71
2023/02/06 06:41:35;;;;;;;26.10;14.70;;;1.90;99.90;;;;;;5094889;28;20964;-71
2023/02/06 06:44:03;;;;;;;25.57;14.67;;;1.90;99.90;;;;;;5094572;28;20840;-71
2023/02/06 06:46:31;;;;;;;22.73;13.10;;;1.90;99.90;;;;;;5076572;28;20451;-71
2023/02/06 06:49:00;;;;;;;17.60;13.33;;;1.90;99.90;;;;;;5094604;28;20995;-71
2023/02/06 06:51:28;;;;;;;24.10;13.40;;;1.90;99.90;;;;;;5094771;28;20495;-71
2023/02/06 06:53:57;;;;;;;27.47;15.70;;;1.90;99.90;;;;;;5094653;28;20495;-71
2023/02/06 06:56:25;;;;;;;27.40;16.30;;;1.90;99.90;;;;;;5076260;28;20489;-71
2023/02/06 06:58:55;;;;;;;26.93;17.40;;;1.90;99.90;;;;;;5094309;28;20473;-71
2023/02/06 07:01:23;;;;;;;25.83;17.10;;;1.90;99.90;;;;;;5094685;28;20466;-71
2023/02/06 07:03:51;;;;;;;21.87;15.17;;;1.90;99.90;;;;;;5094962;28;20539;-71
2023/02/06 07:06:19;;;;;;;24.13;18.53;;;1.90;99.90;;;;;;5095012;28;20536;-71
2023/02/06 07:08:47;;;;;;;40.70;28.53;;;1.90;99.90;;;;;;5095398;28;20462;-71
2023/02/06 07:11:17;;;;;;;36.27;26.53;;;1.90;99.90;;;;;;5080841;28;20442;-71
2023/02/06 07:13:45;;;;;;;36.63;26.60;;;1.90;99.90;;;;;;5097822;28;20442;-71
2023/02/06 07:16:15;;;;;;;32.60;25.47;;;1.90;99.90;;;;;;5098301;28;20445;-71
2023/02/06 07:18:43;;;;;;;34.93;26.27;;;1.90;99.90;;;;;;5097424;28;20444;-71
2023/02/06 07:21:13;;;;;;;32.60;25.30;;;1.90;99.90;;;;;;5077919;28;20454;-71
2023/02/06 07:23:41;;;;;;;33.70;25.73;;;1.90;99.90;;;;;;5099924;28;20500;-71
2023/02/06 07:26:09;;;;;;;27.03;21.87;;;1.90;99.90;;;;;;5097009;28;20502;-71
2023/02/06 07:28:37;;;;;;;23.03;20.60;;;1.90;99.90;;;;;;5097682;28;20984;-72
2023/02/06 07:31:07;;;;;;;24.60;20.93;;;1.90;99.90;;;;;;5096219;28;20793;-71
2023/02/06 07:33:36;;;;;;;28.57;20.50;;;2.00;99.90;;;;;;5094540;28;20434;-71
2023/02/06 07:36:05;;;;;;;23.90;19.57;;;1.90;99.90;;;;;;5094924;28;20472;-71
2023/02/06 07:38:33;;;;;;;23.83;19.30;;;1.90;99.90;;;;;;5093929;28;20827;-71
2023/02/06 07:41:02;;;;;;;21.10;18.70;;;2.00;99.90;;;;;;5075775;28;20454;-72
2023/02/06 07:43:31;;;;;;;30.47;18.33;;;2.00;99.90;;;;;;5093830;28;20519;-71
2023/02/06 07:46:00;;;;;;;24.93;16.73;;;2.00;99.90;;;;;;5075580;28;20441;-71
2023/02/06 07:48:28;;;;;;;29.90;16.67;;;2.00;99.90;;;;;;5093553;28;20870;-71
2023/02/06 07:51:03;;;;;;;21.00;15.30;;;2.00;99.90;;;;;;5093742;28;20443;-71
2023/02/06 07:53:31;;;;;;;21.17;16.00;;;2.00;99.90;;;;;;5094096;28;20419;-71
2023/02/06 07:56:00;;;;;;;22.17;16.07;;;2.00;99.90;;;;;;5093697;28;20443;-71
2023/02/06 07:58:28;;;;;;;22.87;16.50;;;2.00;99.90;;;;;;5093414;28;20580;-71
2023/02/06 08:00:59;;;;;;;27.90;17.33;;;2.00;99.90;;;;;;5093684;28;20493;-71
2023/02/06 08:03:27;;;;;;;25.17;17.10;;;2.10;99.90;;;;;;5075407;28;20506;-71
2023/02/06 08:05:55;;;;;;;24.87;18.03;;;2.10;99.90;;;;;;5075520;28;20448;-72
2023/02/06 08:08:25;;;;;;;23.03;18.10;;;2.10;99.90;;;;;;5093251;28;20463;-71
2023/02/06 08:10:53;;;;;;;25.73;18.60;;;2.10;99.90;;;;;;5093332;28;20439;-71
2023/02/06 08:13:21;;;;;;;31.70;19.40;;;2.10;99.90;;;;;;5093333;28;20441;-71
2023/02/06 08:15:49;;;;;;;23.67;18.43;;;2.20;99.90;;;;;;5093490;28;20939;-71
2023/02/06 08:18:17;;;;;;;31.50;21.17;;;2.20;99.90;;;;;;5075454;28;20475;-71
2023/02/06 08:20:45;;;;;;;29.50;20.27;;;2.20;99.90;;;;;;5093590;28;20436;-71
2023/02/06 08:23:13;;;;;;;30.63;21.90;;;2.20;99.90;;;;;;5093128;28;20473;-71
2023/02/06 08:25:43;;;;;;;31.13;19.93;;;2.30;99.90;;;;;;5093128;28;20504;-72
2023/02/06 08:28:13;;;;;;;32.03;20.93;;;2.30;99.90;;;;;;5093383;28;20994;-71
2023/02/06 08:30:41;;;;;;;25.10;19.57;;;2.30;99.90;;;;;;5075040;28;20432;-71
2023/02/06 08:33:10;;;;;;;29.37;20.80;;;2.40;99.90;;;;;;5093074;28;20930;-72
2023/02/06 08:35:38;;;;;;;37.50;23.43;;;2.40;99.90;;;;;;5075007;28;20477;-71
2023/02/06 08:38:06;;;;;;;36.27;22.33;;;2.40;99.90;;;;;;5094714;28;20948;-71
2023/02/06 08:40:34;;;;;;;32.17;22.37;;;2.50;99.90;;;;;;5078822;28;20548;-72
2023/02/06 08:43:03;;;;;;;31.20;21.43;;;2.40;99.90;;;;;;5096774;28;20464;-72
2023/02/06 08:45:31;;;;;;;31.03;20.80;;;2.50;99.90;;;;;;5096989;28;20956;-71
2023/02/06 08:48:00;;;;;;;28.00;18.33;;;2.60;99.90;;;;;;5096858;28;20441;-71
2023/02/06 08:50:28;;;;;;;35.30;20.63;;;2.70;99.90;;;;;;5078591;28;20516;-72
2023/02/06 08:52:56;;;;;;;34.57;20.77;;;2.70;99.90;;;;;;5097432;28;20432;-72
2023/02/06 08:55:24;;;;;;;31.83;20.87;;;2.70;99.90;;;;;;5096655;28;20439;-71
2023/02/06 08:57:52;;;;;;;29.47;21.10;;;2.70;99.90;;;;;;5097126;28;20511;-71
2023/02/06 09:00:22;;;;;;;41.70;18.80;;;2.80;99.90;;;;;;5098286;28;20444;-71
2023/02/06 09:02:52;;;;;;;55.00;21.93;;;2.90;99.90;;;;;;5078216;28;21009;-71
2023/02/06 09:05:21;;;;;;;38.37;18.77;;;2.90;99.90;;;;;;5097058;28;20432;-72
2023/02/06 09:07:49;;;;;;;32.90;19.03;;;3.00;99.90;;;;;;5096445;28;20446;-71
2023/02/06 09:10:17;;;;;;;45.40;20.00;;;3.00;99.90;;;;;;5096359;28;20434;-72
2023/02/06 09:12:54;;;;;;;48.67;19.37;;;3.10;99.90;;;;;;5096561;28;20423;-71
2023/02/06 09:15:24;;;;;;;52.20;20.50;;;3.10;99.90;;;;;;5096522;28;20436;-71
2023/02/06 09:17:52;;;;;;;41.07;18.80;;;3.10;99.90;;;;;;5077934;28;20504;-72
2023/02/06 09:20:21;;;;;;;36.87;17.73;;;3.10;99.90;;;;;;5096373;28;20442;-71
2023/02/06 09:22:49;;;;;;;44.50;19.23;;;3.20;99.90;;;;;;5096310;28;20864;-71
2023/02/06 09:25:17;;;;;;;41.77;17.70;;;3.20;99.90;;;;;;5078005;28;20454;-71
2023/02/06 09:27:46;;;;;;;30.10;16.03;;;3.30;99.90;;;;;;5096545;28;20514;-71
2023/02/06 09:30:14;;;;;;;38.97;17.33;;;3.30;99.90;;;;;;5095891;28;20454;-71
2023/02/06 09:32:44;;;;;;;54.83;19.60;;;3.30;99.90;;;;;;5095929;28;20939;-71
2023/02/06 09:35:12;;;;;;;40.93;17.73;;;3.50;99.90;;;;;;5095883;28;20436;-71
2023/02/06 09:37:40;;;;;;;56.57;19.27;;;3.40;99.90;;;;;;5096004;28;20439;-71
2023/02/06 09:40:12;;;;;;;49.97;19.47;;;3.40;99.90;;;;;;5095818;28;20567;-71
2023/02/06 09:42:41;;;;;;;48.10;19.33;;;3.50;99.90;;;;;;5096100;28;20455;-71
2023/02/06 09:45:16;;;;;;;52.43;21.00;;;3.50;99.90;;;;;;5077823;28;20444;-72
2023/02/06 09:47:49;;;;;;;48.63;19.70;;;3.60;99.90;;;;;;5096361;28;20420;-71
2023/02/06 09:50:26;;;;;;;48.67;20.67;;;3.60;99.90;;;;;;5095333;28;20911;-71
2023/02/06 09:53:05;;;;;;;47.23;20.43;;;3.70;99.90;;;;;;5096068;28;20421;-71
2023/02/06 09:55:38;;;;;;;44.57;20.47;;;3.70;99.90;;;;;;5077488;28;20451;-72
2023/02/06 09:58:18;;;;;;;54.80;19.90;;;3.70;99.90;;;;;;5077259;28;20543;-72
2023/02/06 10:00:52;;;;;;;53.00;22.97;;;3.70;99.90;;;;;;5095698;28;20445;-71
2023/02/06 10:03:43;;;;;;;70.73;23.20;;;3.80;99.90;;;;;;5095513;28;20463;-72
2023/02/06 10:06:18;;;;;;;46.07;22.67;;;3.80;99.90;;;;;;5095482;28;20807;-72
2023/02/06 10:08:53;;;;;;;47.77;21.27;;;3.80;99.90;;;;;;5095230;28;20452;-71
2023/02/06 10:11:32;;;;;;;50.10;23.27;;;3.80;99.90;;;;;;5095560;28;20439;-72
2023/02/06 10:14:04;;;;;;;50.67;24.43;;;3.80;99.90;;;;;;5095664;28;20511;-72
2023/02/06 10:16:38;;;;;;;59.50;24.40;;;3.90;99.90;;;;;;5077061;28;20923;-72
2023/02/06 10:19:15;;;;;;;57.93;23.10;;;3.90;99.90;;;;;;5094946;28;20958;-72
2023/02/06 10:21:50;;;;;;;50.20;21.57;;;4.00;99.90;;;;;;5096252;28;20424;-72
2023/02/06 10:24:26;;;;;;;49.67;21.70;;;4.00;99.90;;;;;;5095419;28;20451;-72
2023/02/06 10:26:58;;;;;;;41.03;19.80;;;4.00;99.90;;;;;;5076767;28;20915;-72
2023/02/06 10:29:28;;;;;;;47.10;21.43;;;4.10;99.90;;;;;;5095055;28;20471;-72
2023/02/06 10:32:12;;;;;;;44.20;21.07;;;4.10;99.90;;;;;;5076533;28;20542;-72
2023/02/06 10:34:59;;;;;;;48.60;23.17;;;4.10;99.90;;;;;;5095014;28;20864;-72
2023/02/06 10:37:46;;;;;;;46.70;22.13;;;4.20;99.90;;;;;;5094966;28;20419;-72
2023/02/06 10:40:36;;;;;;;52.40;23.07;;;4.20;99.90;;;;;;5094605;28;20459;-72
2023/02/06 10:43:16;;;;;;;59.93;21.60;;;4.20;99.90;;;;;;5094859;28;20480;-71
2023/02/06 10:45:51;;;;;;;49.57;23.60;;;4.30;99.90;;;;;;5094577;28;20417;-72
2023/02/06 10:48:28;;;;;;;51.73;24.27;;;4.30;99.90;;;;;;5095211;28;20456;-72
2023/02/06 10:51:07;;;;;;;56.97;24.60;;;4.30;99.90;;;;;;5094881;28;20413;-72
2023/02/06 10:53:38;;;;;;;48.10;23.90;;;4.40;99.90;;;;;;5095045;28;20423;-71
2023/02/06 10:56:10;;;;;;;58.83;25.13;;;4.40;99.90;;;;;;5076290;28;20462;-72
2023/02/06 10:58:45;;;;;;;53.50;24.73;;;4.40;99.90;;;;;;5076556;28;20827;-71
2023/02/06 11:01:15;;;;;;;57.10;24.60;;;4.40;99.90;;;;;;5093874;28;20448;-71
2023/02/06 11:03:58;;;;;;;57.67;23.50;;;4.50;99.90;;;;;;5076070;28;20476;-71
2023/02/06 11:06:30;;;;;;;57.97;25.20;;;4.50;99.90;;;;;;5094627;28;20772;-72
2023/02/06 11:08:58;;;;;;;55.23;26.43;;;4.50;99.90;;;;;;5094409;28;20462;-72
2023/02/06 11:11:30;;;;;;;47.37;24.97;;;4.60;99.90;;;;;;5075960;28;20541;-71
2023/02/06 11:14:01;;;;;;;47.00;25.13;;;4.70;99.90;;;;;;5094387;28;20926;-71
2023/02/06 11:16:30;;;;;;;55.50;24.63;;;4.70;99.90;;;;;;5094503;28;20452;-72
2023/02/06 11:19:05;;;;;;;63.47;26.40;;;4.70;99.90;;;;;;5093948;28;20452;-72
2023/02/06 11:22:10;;;;;;;49.10;24.13;;;4.70;99.90;;;;;;5094495;28;20435;-71
2023/02/06 11:24:39;;;;;;;49.20;24.20;;;4.80;99.90;;;;;;5094161;28;20460;-72
2023/02/06 11:27:16;;;;;;;45.13;23.50;;;4.80;99.90;;;;;;5094115;28;20915;-72
2023/02/06 11:29:47;;;;;;;45.43;25.80;;;4.80;99.90;;;;;;5094155;28;20459;-71
2023/02/06 11:32:34;;;;;;;40.83;23.80;;;4.90;99.90;;;;;;5094039;28;20442;-72
2023/02/06 11:35:06;;;;;;;39.90;23.20;;;5.00;99.90;;;;;;5093762;28;20880;-72
2023/02/06 11:37:37;;;;;;;38.43;22.17;;;5.00;99.90;;;;;;5075560;28;20433;-72
2023/02/06 11:40:26;;;;;;;42.97;25.53;;;5.10;99.90;;;;;;5093579;28;20555;-72
2023/02/06 11:43:14;;;;;;;48.67;26.60;;;5.10;99.90;;;;;;5093891;28;20413;-72
2023/02/06 11:45:44;;;;;;;42.47;27.93;;;5.20;99.90;;;;;;5094112;28;20428;-72
2023/02/06 11:48:31;;;;;;;49.27;27.00;;;5.20;99.90;;;;;;5075440;28;20981;-72
2023/02/06 11:50:59;;;;;;;49.80;30.10;;;5.20;99.90;;;;;;5093755;28;20456;-72
2023/02/06 11:53:29;;;;;;;49.80;31.57;;;5.30;99.90;;;;;;5093393;28;20441;-72
2023/02/06 11:56:04;;;;;;;42.90;29.23;;;5.30;99.90;;;;;;5094155;28;20451;-72
2023/02/06 11:58:33;;;;;;;38.63;24.90;;;5.30;99.90;;;;;;5093306;28;20490;-72
2023/02/06 12:01:04;;;;;;;41.67;24.63;;;5.40;99.90;;;;;;5094238;28;20489;-72
2023/02/06 12:03:36;;;;;;;38.07;28.17;;;5.40;99.90;;;;;;5093774;28;20515;-71
2023/02/06 12:06:17;;;;;;;43.07;30.23;;;5.40;99.90;;;;;;5093704;28;20428;-72
2023/02/06 12:08:50;;;;;;;51.67;31.93;;;5.40;99.90;;;;;;5075273;28;20464;-72
2023/02/06 12:11:23;;;;;;;42.83;31.67;;;5.50;99.90;;;;;;5075475;28;20432;-71
2023/02/06 12:13:55;;;;;;;40.50;29.23;;;5.50;99.90;;;;;;5097754;28;20412;-72
2023/02/06 12:16:24;;;;;;;36.83;28.17;;;5.60;99.90;;;;;;5097731;28;20493;-72
2023/02/06 12:18:56;;;;;;;42.80;28.80;;;5.60;99.90;;;;;;5097248;28;20535;-71
2023/02/06 12:21:34;;;;;;;43.83;30.40;;;5.60;99.90;;;;;;5097650;28;20424;-71
2023/02/06 12:24:15;;;;;;;38.73;27.97;;;5.70;99.90;;;;;;5097451;28;20484;-72
2023/02/06 12:26:45;;;;;;;36.63;28.20;;;5.80;99.90;;;;;;5079024;28;20813;-71
2023/02/06 12:29:18;;;;;;;36.93;27.90;;;5.80;99.90;;;;;;5097766;28;20466;-71
2023/02/06 12:31:52;;;;;;;39.07;26.10;;;5.80;99.90;;;;;;5097470;28;20481;-71
2023/02/06 12:34:24;;;;;;;42.23;27.47;;;5.80;99.90;;;;;;5097032;28;20429;-71
2023/02/06 12:37:07;;;;;;;39.83;26.70;;;5.90;99.90;;;;;;5097301;28;20425;-72
2023/02/06 12:39:37;;;;;;;39.10;26.40;;;5.90;99.90;;;;;;5097236;28;21053;-71
2023/02/06 12:42:35;;;;;;;43.23;26.03;;;6.00;99.90;;;;;;5097418;28;20431;-71
2023/02/06 12:45:12;;;;;;;38.30;27.37;;;6.00;99.90;;;;;;5096748;28;20492;-72
2023/02/06 12:47:45;;;;;;;43.37;27.50;;;6.00;99.90;;;;;;5096835;28;20436;-72
2023/02/06 12:50:18;;;;;;;38.20;26.30;;;6.10;99.90;;;;;;5096690;28;20987;-72
2023/02/06 12:52:51;;;;;;;38.07;27.27;;;6.10;99.90;;;;;;5097043;28;20429;-72
2023/02/06 12:55:25;;;;;;;35.60;25.97;;;6.10;99.90;;;;;;5096942;28;20850;-72
2023/02/06 12:57:53;;;;;;;37.40;27.10;;;6.20;99.90;;;;;;5096664;28;20547;-72
2023/02/06 13:00:45;;;;;;;29.53;25.93;;;6.20;99.90;;;;;;5096594;28;20451;-72
2023/02/06 13:03:23;;;;;;;35.30;25.30;;;6.20;99.90;;;;;;5097121;28;20453;-71